sensor_id;sensor_type;location;lat;lon;timestamp;P1;durP1;ratioP1;P2;durP2;ratioP2
22752;SDS011;11543;43.144;24.684;2023-12-20T00:02:20;18.55;;;10.73;;
22752;SDS011;11543;43.144;24.684;2023-12-20T00:04:45;18.55;;;10.65;;
22752;SDS011;11543;43.144;24.684;2023-12-20T00:07:11;17.73;;;10.43;;
22752;SDS011;11543;43.144;24.684;2023-12-20T00:09:37;17.85;;;10.20;;
22752;SDS011;11543;43.144;24.684;2023-12-20T00:12:02;14.82;;;9.55;;
22752;SDS011;11543;43.144;24.684;2023-12-20T00:14:28;14.70;;;8.50;;
22752;SDS011;11543;43.144;24.684;2023-12-20T00:16:53;14.48;;;8.70;;
22752;SDS011;11543;43.144;24.684;2023-12-20T00:19:19;17.33;;;8.10;;
22752;SDS011;11543;43.144;24.684;2023-12-20T00:21:44;10.88;;;7.28;;
22752;SDS011;11543;43.144;24.684;2023-12-20T00:24:09;14.55;;;8.65;;
22752;SDS011;11543;43.144;24.684;2023-12-20T00:26:35;23.50;;;12.82;;
22752;SDS011;11543;43.144;24.684;2023-12-20T00:29:00;22.13;;;11.65;;
22752;SDS011;11543;43.144;24.684;2023-12-20T00:31:26;20.27;;;11.77;;
22752;SDS011;11543;43.144;24.684;2023-12-20T00:33:51;31.75;;;17.33;;
22752;SDS011;11543;43.144;24.684;2023-12-20T00:36:17;39.60;;;20.95;;
22752;SDS011;11543;43.144;24.684;2023-12-20T00:38:42;36.90;;;19.70;;
22752;SDS011;11543;43.144;24.684;2023-12-20T00:41:08;30.52;;;17.75;;
22752;SDS011;11543;43.144;24.684;2023-12-20T00:43:34;31.05;;;17.35;;
22752;SDS011;11543;43.144;24.684;2023-12-20T00:45:59;47.45;;;23.88;;
22752;SDS011;11543;43.144;24.684;2023-12-20T00:48:27;44.08;;;22.30;;
22752;SDS011;11543;43.144;24.684;2023-12-20T00:50:55;27.55;;;15.10;;
22752;SDS011;11543;43.144;24.684;2023-12-20T00:53:20;18.00;;;11.70;;
22752;SDS011;11543;43.144;24.684;2023-12-20T00:55:46;18.83;;;11.35;;
22752;SDS011;11543;43.144;24.684;2023-12-20T00:58:11;20.75;;;11.10;;
22752;SDS011;11543;43.144;24.684;2023-12-20T01:00:37;20.10;;;11.23;;
22752;SDS011;11543;43.144;24.684;2023-12-20T01:03:03;16.75;;;8.82;;
22752;SDS011;11543;43.144;24.684;2023-12-20T01:05:28;15.73;;;9.15;;
22752;SDS011;11543;43.144;24.684;2023-12-20T01:07:54;13.60;;;8.00;;
22752;SDS011;11543;43.144;24.684;2023-12-20T01:10:19;13.32;;;8.25;;
22752;SDS011;11543;43.144;24.684;2023-12-20T01:12:45;11.95;;;8.05;;
22752;SDS011;11543;43.144;24.684;2023-12-20T01:15:10;16.35;;;9.48;;
22752;SDS011;11543;43.144;24.684;2023-12-20T01:17:36;16.02;;;9.75;;
22752;SDS011;11543;43.144;24.684;2023-12-20T01:20:02;14.85;;;9.65;;
22752;SDS011;11543;43.144;24.684;2023-12-20T01:22:27;20.33;;;9.82;;
22752;SDS011;11543;43.144;24.684;2023-12-20T01:24:53;14.60;;;9.15;;
22752;SDS011;11543;43.144;24.684;2023-12-20T01:27:18;18.60;;;9.48;;
22752;SDS011;11543;43.144;24.684;2023-12-20T01:29:44;17.17;;;10.63;;
22752;SDS011;11543;43.144;24.684;2023-12-20T01:32:10;20.63;;;11.88;;
22752;SDS011;11543;43.144;24.684;2023-12-20T01:34:35;23.58;;;14.73;;
22752;SDS011;11543;43.144;24.684;2023-12-20T01:37:01;19.48;;;11.00;;
22752;SDS011;11543;43.144;24.684;2023-12-20T01:39:27;15.23;;;9.48;;
22752;SDS011;11543;43.144;24.684;2023-12-20T01:41:53;16.35;;;9.85;;
22752;SDS011;11543;43.144;24.684;2023-12-20T01:44:18;17.10;;;9.52;;
22752;SDS011;11543;43.144;24.684;2023-12-20T01:46:44;12.88;;;9.07;;
22752;SDS011;11543;43.144;24.684;2023-12-20T01:49:10;14.15;;;9.18;;
22752;SDS011;11543;43.144;24.684;2023-12-20T01:51:36;14.63;;;9.70;;
22752;SDS011;11543;43.144;24.684;2023-12-20T01:54:02;21.52;;;12.23;;
22752;SDS011;11543;43.144;24.684;2023-12-20T01:56:28;26.85;;;15.10;;
22752;SDS011;11543;43.144;24.684;2023-12-20T01:58:55;27.75;;;15.48;;
22752;SDS011;11543;43.144;24.684;2023-12-20T02:01:21;29.15;;;16.38;;
22752;SDS011;11543;43.144;24.684;2023-12-20T02:03:47;43.60;;;24.67;;
22752;SDS011;11543;43.144;24.684;2023-12-20T02:06:13;40.20;;;22.83;;
22752;SDS011;11543;43.144;24.684;2023-12-20T02:08:39;39.28;;;22.08;;
22752;SDS011;11543;43.144;24.684;2023-12-20T02:11:05;37.03;;;20.70;;
22752;SDS011;11543;43.144;24.684;2023-12-20T02:13:31;35.25;;;19.67;;
22752;SDS011;11543;43.144;24.684;2023-12-20T02:15:57;33.75;;;19.17;;
22752;SDS011;11543;43.144;24.684;2023-12-20T02:18:22;32.47;;;18.27;;
22752;SDS011;11543;43.144;24.684;2023-12-20T02:20:48;26.13;;;15.70;;
22752;SDS011;11543;43.144;24.684;2023-12-20T02:23:14;25.70;;;14.60;;
22752;SDS011;11543;43.144;24.684;2023-12-20T02:25:39;30.42;;;17.95;;
22752;SDS011;11543;43.144;24.684;2023-12-20T02:28:05;36.85;;;20.30;;
22752;SDS011;11543;43.144;24.684;2023-12-20T02:30:31;37.58;;;20.85;;
22752;SDS011;11543;43.144;24.684;2023-12-20T02:32:57;38.70;;;20.70;;
22752;SDS011;11543;43.144;24.684;2023-12-20T02:35:28;35.20;;;19.67;;
22752;SDS011;11543;43.144;24.684;2023-12-20T02:37:54;31.67;;;18.55;;
22752;SDS011;11543;43.144;24.684;2023-12-20T02:40:19;31.48;;;18.52;;
22752;SDS011;11543;43.144;24.684;2023-12-20T02:42:45;36.03;;;21.17;;
22752;SDS011;11543;43.144;24.684;2023-12-20T02:45:10;36.80;;;21.25;;
22752;SDS011;11543;43.144;24.684;2023-12-20T02:47:36;34.83;;;19.00;;
22752;SDS011;11543;43.144;24.684;2023-12-20T02:50:01;34.92;;;21.00;;
22752;SDS011;11543;43.144;24.684;2023-12-20T02:52:28;33.33;;;19.73;;
22752;SDS011;11543;43.144;24.684;2023-12-20T02:54:54;29.50;;;16.25;;
22752;SDS011;11543;43.144;24.684;2023-12-20T02:57:19;17.98;;;10.60;;
22752;SDS011;11543;43.144;24.684;2023-12-20T02:59:45;14.43;;;8.80;;
22752;SDS011;11543;43.144;24.684;2023-12-20T03:02:10;13.23;;;8.93;;
22752;SDS011;11543;43.144;24.684;2023-12-20T03:04:35;12.70;;;7.60;;
22752;SDS011;11543;43.144;24.684;2023-12-20T03:07:01;13.38;;;8.57;;
22752;SDS011;11543;43.144;24.684;2023-12-20T03:09:26;14.85;;;9.07;;
22752;SDS011;11543;43.144;24.684;2023-12-20T03:11:52;17.38;;;9.35;;
22752;SDS011;11543;43.144;24.684;2023-12-20T03:14:17;16.33;;;9.70;;
22752;SDS011;11543;43.144;24.684;2023-12-20T03:16:46;14.15;;;9.32;;
22752;SDS011;11543;43.144;24.684;2023-12-20T03:19:15;14.43;;;9.30;;
22752;SDS011;11543;43.144;24.684;2023-12-20T03:21:41;13.68;;;9.15;;
22752;SDS011;11543;43.144;24.684;2023-12-20T03:24:07;15.20;;;9.18;;
22752;SDS011;11543;43.144;24.684;2023-12-20T03:26:32;14.88;;;9.57;;
22752;SDS011;11543;43.144;24.684;2023-12-20T03:28:58;14.25;;;10.00;;
22752;SDS011;11543;43.144;24.684;2023-12-20T03:31:23;16.05;;;10.15;;
22752;SDS011;11543;43.144;24.684;2023-12-20T03:33:49;19.35;;;11.40;;
22752;SDS011;11543;43.144;24.684;2023-12-20T03:36:16;13.82;;;8.10;;
22752;SDS011;11543;43.144;24.684;2023-12-20T03:38:41;13.02;;;8.07;;
22752;SDS011;11543;43.144;24.684;2023-12-20T03:41:07;13.80;;;8.32;;
22752;SDS011;11543;43.144;24.684;2023-12-20T03:43:32;12.27;;;7.22;;
22752;SDS011;11543;43.144;24.684;2023-12-20T03:45:58;10.88;;;6.45;;
22752;SDS011;11543;43.144;24.684;2023-12-20T03:48:25;8.82;;;5.90;;
22752;SDS011;11543;43.144;24.684;2023-12-20T03:50:50;10.60;;;5.95;;
22752;SDS011;11543;43.144;24.684;2023-12-20T03:53:16;10.48;;;5.80;;
22752;SDS011;11543;43.144;24.684;2023-12-20T03:55:41;8.65;;;5.65;;
22752;SDS011;11543;43.144;24.684;2023-12-20T03:58:07;7.95;;;5.20;;
22752;SDS011;11543;43.144;24.684;2023-12-20T04:00:32;8.05;;;4.90;;
22752;SDS011;11543;43.144;24.684;2023-12-20T04:02:58;15.75;;;9.45;;
22752;SDS011;11543;43.144;24.684;2023-12-20T04:05:23;23.55;;;14.15;;
22752;SDS011;11543;43.144;24.684;2023-12-20T04:07:48;41.03;;;22.55;;
22752;SDS011;11543;43.144;24.684;2023-12-20T04:10:15;36.35;;;20.48;;
22752;SDS011;11543;43.144;24.684;2023-12-20T04:12:41;32.95;;;18.05;;
22752;SDS011;11543;43.144;24.684;2023-12-20T04:15:06;52.70;;;31.23;;
22752;SDS011;11543;43.144;24.684;2023-12-20T04:17:34;47.88;;;27.05;;
22752;SDS011;11543;43.144;24.684;2023-12-20T04:20:01;42.38;;;24.85;;
22752;SDS011;11543;43.144;24.684;2023-12-20T04:22:26;29.65;;;17.30;;
22752;SDS011;11543;43.144;24.684;2023-12-20T04:24:52;22.05;;;12.23;;
22752;SDS011;11543;43.144;24.684;2023-12-20T04:27:17;12.85;;;7.97;;
22752;SDS011;11543;43.144;24.684;2023-12-20T04:29:43;11.52;;;7.05;;
22752;SDS011;11543;43.144;24.684;2023-12-20T04:32:08;14.02;;;7.82;;
22752;SDS011;11543;43.144;24.684;2023-12-20T04:34:34;14.25;;;8.82;;
22752;SDS011;11543;43.144;24.684;2023-12-20T04:36:59;21.42;;;14.90;;
22752;SDS011;11543;43.144;24.684;2023-12-20T04:39:26;15.30;;;11.45;;
22752;SDS011;11543;43.144;24.684;2023-12-20T04:41:52;15.88;;;11.25;;
22752;SDS011;11543;43.144;24.684;2023-12-20T04:44:18;14.55;;;8.52;;
22752;SDS011;11543;43.144;24.684;2023-12-20T04:46:43;13.60;;;9.88;;
22752;SDS011;11543;43.144;24.684;2023-12-20T04:49:09;19.20;;;10.45;;
22752;SDS011;11543;43.144;24.684;2023-12-20T04:51:34;15.43;;;10.48;;
22752;SDS011;11543;43.144;24.684;2023-12-20T04:54:01;22.40;;;13.07;;
22752;SDS011;11543;43.144;24.684;2023-12-20T04:56:29;19.70;;;10.55;;
22752;SDS011;11543;43.144;24.684;2023-12-20T04:58:54;18.85;;;10.23;;
22752;SDS011;11543;43.144;24.684;2023-12-20T05:01:20;22.15;;;12.25;;
22752;SDS011;11543;43.144;24.684;2023-12-20T05:03:46;22.15;;;12.68;;
22752;SDS011;11543;43.144;24.684;2023-12-20T05:06:12;20.75;;;13.90;;
22752;SDS011;11543;43.144;24.684;2023-12-20T05:08:38;28.35;;;17.00;;
22752;SDS011;11543;43.144;24.684;2023-12-20T05:11:03;30.00;;;18.38;;
22752;SDS011;11543;43.144;24.684;2023-12-20T05:13:29;32.05;;;16.95;;
22752;SDS011;11543;43.144;24.684;2023-12-20T05:15:55;30.90;;;19.63;;
22752;SDS011;11543;43.144;24.684;2023-12-20T05:18:21;38.17;;;23.50;;
22752;SDS011;11543;43.144;24.684;2023-12-20T05:20:48;32.08;;;20.20;;
22752;SDS011;11543;43.144;24.684;2023-12-20T05:23:14;34.00;;;20.15;;
22752;SDS011;11543;43.144;24.684;2023-12-20T05:25:40;29.90;;;17.77;;
22752;SDS011;11543;43.144;24.684;2023-12-20T05:28:05;14.23;;;7.85;;
22752;SDS011;11543;43.144;24.684;2023-12-20T05:30:32;15.45;;;10.13;;
22752;SDS011;11543;43.144;24.684;2023-12-20T05:32:58;11.85;;;7.63;;
22752;SDS011;11543;43.144;24.684;2023-12-20T05:35:23;11.05;;;7.50;;
22752;SDS011;11543;43.144;24.684;2023-12-20T05:37:49;12.27;;;7.70;;
22752;SDS011;11543;43.144;24.684;2023-12-20T05:40:18;12.25;;;7.80;;
22752;SDS011;11543;43.144;24.684;2023-12-20T05:42:43;13.32;;;8.55;;
22752;SDS011;11543;43.144;24.684;2023-12-20T05:45:09;32.75;;;20.55;;
22752;SDS011;11543;43.144;24.684;2023-12-20T05:47:36;38.13;;;22.10;;
22752;SDS011;11543;43.144;24.684;2023-12-20T05:50:01;26.92;;;17.83;;
22752;SDS011;11543;43.144;24.684;2023-12-20T05:52:27;28.38;;;16.95;;
22752;SDS011;11543;43.144;24.684;2023-12-20T05:54:54;29.70;;;18.65;;
22752;SDS011;11543;43.144;24.684;2023-12-20T05:57:21;27.00;;;18.42;;
22752;SDS011;11543;43.144;24.684;2023-12-20T05:59:48;28.10;;;18.73;;
22752;SDS011;11543;43.144;24.684;2023-12-20T06:02:16;33.05;;;20.45;;
22752;SDS011;11543;43.144;24.684;2023-12-20T06:04:42;43.75;;;23.27;;
22752;SDS011;11543;43.144;24.684;2023-12-20T06:07:08;41.13;;;22.15;;
22752;SDS011;11543;43.144;24.684;2023-12-20T06:09:37;47.00;;;23.48;;
22752;SDS011;11543;43.144;24.684;2023-12-20T06:12:02;41.78;;;22.98;;
22752;SDS011;11543;43.144;24.684;2023-12-20T06:14:28;40.03;;;22.83;;
22752;SDS011;11543;43.144;24.684;2023-12-20T06:16:55;43.00;;;24.60;;
22752;SDS011;11543;43.144;24.684;2023-12-20T06:19:20;43.50;;;24.75;;
22752;SDS011;11543;43.144;24.684;2023-12-20T06:21:47;33.58;;;20.17;;
22752;SDS011;11543;43.144;24.684;2023-12-20T06:24:15;36.28;;;21.17;;
22752;SDS011;11543;43.144;24.684;2023-12-20T06:26:40;33.53;;;19.67;;
22752;SDS011;11543;43.144;24.684;2023-12-20T06:29:06;31.77;;;19.65;;
22752;SDS011;11543;43.144;24.684;2023-12-20T06:31:32;31.88;;;19.05;;
22752;SDS011;11543;43.144;24.684;2023-12-20T06:33:58;34.70;;;19.40;;
22752;SDS011;11543;43.144;24.684;2023-12-20T06:36:25;29.63;;;19.60;;
22752;SDS011;11543;43.144;24.684;2023-12-20T06:38:51;33.80;;;19.00;;
22752;SDS011;11543;43.144;24.684;2023-12-20T06:41:17;50.78;;;29.45;;
22752;SDS011;11543;43.144;24.684;2023-12-20T06:43:42;68.03;;;35.05;;
22752;SDS011;11543;43.144;24.684;2023-12-20T06:46:08;77.82;;;38.83;;
22752;SDS011;11543;43.144;24.684;2023-12-20T06:48:34;83.75;;;40.97;;
22752;SDS011;11543;43.144;24.684;2023-12-20T06:51:00;88.30;;;41.47;;
22752;SDS011;11543;43.144;24.684;2023-12-20T06:53:29;76.75;;;34.53;;
22752;SDS011;11543;43.144;24.684;2023-12-20T06:55:55;69.68;;;35.15;;
22752;SDS011;11543;43.144;24.684;2023-12-20T06:58:24;69.85;;;34.55;;
22752;SDS011;11543;43.144;24.684;2023-12-20T07:00:51;53.13;;;27.25;;
22752;SDS011;11543;43.144;24.684;2023-12-20T07:03:17;36.58;;;20.92;;
22752;SDS011;11543;43.144;24.684;2023-12-20T07:05:43;23.17;;;12.77;;
22752;SDS011;11543;43.144;24.684;2023-12-20T07:08:11;21.08;;;11.40;;
22752;SDS011;11543;43.144;24.684;2023-12-20T07:10:39;19.25;;;11.68;;
22752;SDS011;11543;43.144;24.684;2023-12-20T07:13:07;26.00;;;13.45;;
22752;SDS011;11543;43.144;24.684;2023-12-20T07:15:33;20.38;;;12.23;;
22752;SDS011;11543;43.144;24.684;2023-12-20T07:17:59;20.52;;;11.95;;
22752;SDS011;11543;43.144;24.684;2023-12-20T07:20:26;16.70;;;11.38;;
22752;SDS011;11543;43.144;24.684;2023-12-20T07:22:52;18.45;;;10.07;;
22752;SDS011;11543;43.144;24.684;2023-12-20T07:25:17;11.52;;;8.00;;
22752;SDS011;11543;43.144;24.684;2023-12-20T07:27:44;13.95;;;8.52;;
22752;SDS011;11543;43.144;24.684;2023-12-20T07:30:10;13.82;;;8.73;;
22752;SDS011;11543;43.144;24.684;2023-12-20T07:32:36;14.88;;;9.13;;
22752;SDS011;11543;43.144;24.684;2023-12-20T07:35:01;15.13;;;9.63;;
22752;SDS011;11543;43.144;24.684;2023-12-20T07:37:28;21.73;;;13.20;;
22752;SDS011;11543;43.144;24.684;2023-12-20T07:39:54;18.65;;;11.90;;
22752;SDS011;11543;43.144;24.684;2023-12-20T07:42:19;25.83;;;14.35;;
22752;SDS011;11543;43.144;24.684;2023-12-20T07:44:47;23.23;;;14.35;;
22752;SDS011;11543;43.144;24.684;2023-12-20T07:47:12;25.52;;;14.90;;
22752;SDS011;11543;43.144;24.684;2023-12-20T07:49:40;39.70;;;23.25;;
22752;SDS011;11543;43.144;24.684;2023-12-20T07:52:06;37.35;;;23.20;;
22752;SDS011;11543;43.144;24.684;2023-12-20T07:54:31;70.85;;;40.85;;
22752;SDS011;11543;43.144;24.684;2023-12-20T07:56:57;55.28;;;32.55;;
22752;SDS011;11543;43.144;24.684;2023-12-20T07:59:22;57.20;;;33.20;;
22752;SDS011;11543;43.144;24.684;2023-12-20T08:01:48;68.47;;;43.05;;
22752;SDS011;11543;43.144;24.684;2023-12-20T08:04:13;60.13;;;37.22;;
22752;SDS011;11543;43.144;24.684;2023-12-20T08:06:39;60.92;;;37.42;;
22752;SDS011;11543;43.144;24.684;2023-12-20T08:09:04;58.20;;;36.40;;
22752;SDS011;11543;43.144;24.684;2023-12-20T08:11:30;59.25;;;35.53;;
22752;SDS011;11543;43.144;24.684;2023-12-20T08:13:55;31.95;;;20.30;;
22752;SDS011;11543;43.144;24.684;2023-12-20T08:16:21;40.30;;;25.30;;
22752;SDS011;11543;43.144;24.684;2023-12-20T08:18:47;25.73;;;13.75;;
22752;SDS011;11543;43.144;24.684;2023-12-20T08:21:12;14.02;;;8.75;;
22752;SDS011;11543;43.144;24.684;2023-12-20T08:23:38;15.88;;;8.60;;
22752;SDS011;11543;43.144;24.684;2023-12-20T08:26:04;10.55;;;7.25;;
22752;SDS011;11543;43.144;24.684;2023-12-20T08:28:31;11.82;;;7.05;;
22752;SDS011;11543;43.144;24.684;2023-12-20T08:30:59;13.40;;;8.38;;
22752;SDS011;11543;43.144;24.684;2023-12-20T08:33:24;20.33;;;13.15;;
22752;SDS011;11543;43.144;24.684;2023-12-20T08:35:50;19.75;;;11.75;;
22752;SDS011;11543;43.144;24.684;2023-12-20T08:38:15;16.60;;;10.05;;
22752;SDS011;11543;43.144;24.684;2023-12-20T08:40:42;21.55;;;10.85;;
22752;SDS011;11543;43.144;24.684;2023-12-20T08:43:08;22.60;;;12.15;;
22752;SDS011;11543;43.144;24.684;2023-12-20T08:45:34;22.58;;;12.40;;
22752;SDS011;11543;43.144;24.684;2023-12-20T08:47:59;21.30;;;12.77;;
22752;SDS011;11543;43.144;24.684;2023-12-20T08:50:25;30.75;;;15.50;;
22752;SDS011;11543;43.144;24.684;2023-12-20T08:52:50;29.35;;;16.35;;
22752;SDS011;11543;43.144;24.684;2023-12-20T08:55:16;27.92;;;17.40;;
22752;SDS011;11543;43.144;24.684;2023-12-20T08:57:43;47.85;;;28.10;;
22752;SDS011;11543;43.144;24.684;2023-12-20T09:00:09;27.27;;;15.85;;
22752;SDS011;11543;43.144;24.684;2023-12-20T09:02:35;33.33;;;19.02;;
22752;SDS011;11543;43.144;24.684;2023-12-20T09:05:01;29.08;;;14.55;;
22752;SDS011;11543;43.144;24.684;2023-12-20T09:07:28;23.35;;;12.55;;
22752;SDS011;11543;43.144;24.684;2023-12-20T09:09:55;16.65;;;10.70;;
22752;SDS011;11543;43.144;24.684;2023-12-20T09:12:22;20.10;;;9.55;;
22752;SDS011;11543;43.144;24.684;2023-12-20T09:14:49;16.77;;;8.10;;
22752;SDS011;11543;43.144;24.684;2023-12-20T09:17:15;14.32;;;7.32;;
22752;SDS011;11543;43.144;24.684;2023-12-20T09:19:42;9.75;;;5.32;;
22752;SDS011;11543;43.144;24.684;2023-12-20T09:22:09;8.82;;;4.63;;
22752;SDS011;11543;43.144;24.684;2023-12-20T09:24:34;11.57;;;7.45;;
22752;SDS011;11543;43.144;24.684;2023-12-20T09:27:00;11.90;;;7.55;;
22752;SDS011;11543;43.144;24.684;2023-12-20T09:29:25;16.35;;;8.27;;
22752;SDS011;11543;43.144;24.684;2023-12-20T09:31:51;14.77;;;7.78;;
22752;SDS011;11543;43.144;24.684;2023-12-20T09:34:16;15.13;;;8.90;;
22752;SDS011;11543;43.144;24.684;2023-12-20T09:36:42;13.63;;;8.55;;
22752;SDS011;11543;43.144;24.684;2023-12-20T09:39:13;12.88;;;6.68;;
22752;SDS011;11543;43.144;24.684;2023-12-20T09:41:42;10.98;;;6.93;;
22752;SDS011;11543;43.144;24.684;2023-12-20T09:44:14;16.42;;;6.68;;
22752;SDS011;11543;43.144;24.684;2023-12-20T09:46:43;11.88;;;5.28;;
22752;SDS011;11543;43.144;24.684;2023-12-20T09:49:10;12.00;;;6.28;;
22752;SDS011;11543;43.144;24.684;2023-12-20T09:51:37;11.40;;;5.80;;
22752;SDS011;11543;43.144;24.684;2023-12-20T09:54:03;12.35;;;6.80;;
22752;SDS011;11543;43.144;24.684;2023-12-20T09:56:29;10.20;;;6.70;;
22752;SDS011;11543;43.144;24.684;2023-12-20T09:58:55;16.50;;;8.15;;
22752;SDS011;11543;43.144;24.684;2023-12-20T10:01:21;12.55;;;8.60;;
22752;SDS011;11543;43.144;24.684;2023-12-20T10:03:48;12.90;;;7.53;;
22752;SDS011;11543;43.144;24.684;2023-12-20T10:06:19;12.82;;;6.65;;
22752;SDS011;11543;43.144;24.684;2023-12-20T10:08:44;10.95;;;5.82;;
22752;SDS011;11543;43.144;24.684;2023-12-20T10:11:10;12.00;;;3.83;;
22752;SDS011;11543;43.144;24.684;2023-12-20T10:13:39;7.18;;;3.95;;
22752;SDS011;11543;43.144;24.684;2023-12-20T10:16:06;7.90;;;4.72;;
22752;SDS011;11543;43.144;24.684;2023-12-20T10:18:32;6.57;;;3.40;;
22752;SDS011;11543;43.144;24.684;2023-12-20T10:20:58;8.25;;;3.50;;
22752;SDS011;11543;43.144;24.684;2023-12-20T10:23:25;9.95;;;3.90;;
22752;SDS011;11543;43.144;24.684;2023-12-20T10:26:00;6.68;;;3.72;;
22752;SDS011;11543;43.144;24.684;2023-12-20T10:28:26;22.27;;;13.70;;
22752;SDS011;11543;43.144;24.684;2023-12-20T10:30:54;7.63;;;3.90;;
22752;SDS011;11543;43.144;24.684;2023-12-20T10:33:26;12.73;;;4.15;;
22752;SDS011;11543;43.144;24.684;2023-12-20T10:35:53;13.30;;;4.50;;
22752;SDS011;11543;43.144;24.684;2023-12-20T10:38:20;7.43;;;3.67;;
22752;SDS011;11543;43.144;24.684;2023-12-20T10:40:46;10.98;;;3.50;;
22752;SDS011;11543;43.144;24.684;2023-12-20T10:43:12;8.82;;;4.13;;
22752;SDS011;11543;43.144;24.684;2023-12-20T10:45:38;16.48;;;9.10;;
22752;SDS011;11543;43.144;24.684;2023-12-20T10:48:04;14.88;;;9.73;;
22752;SDS011;11543;43.144;24.684;2023-12-20T10:50:30;22.08;;;13.98;;
22752;SDS011;11543;43.144;24.684;2023-12-20T10:52:56;35.78;;;22.45;;
22752;SDS011;11543;43.144;24.684;2023-12-20T10:55:23;10.18;;;5.88;;
22752;SDS011;11543;43.144;24.684;2023-12-20T10:57:50;6.43;;;3.28;;
22752;SDS011;11543;43.144;24.684;2023-12-20T11:00:17;3.30;;;2.08;;
22752;SDS011;11543;43.144;24.684;2023-12-20T11:02:44;5.47;;;3.20;;
22752;SDS011;11543;43.144;24.684;2023-12-20T11:05:13;5.72;;;1.80;;
22752;SDS011;11543;43.144;24.684;2023-12-20T11:08:02;4.60;;;2.10;;
22752;SDS011;11543;43.144;24.684;2023-12-20T11:10:34;5.07;;;3.05;;
22752;SDS011;11543;43.144;24.684;2023-12-20T11:13:17;14.68;;;9.52;;
22752;SDS011;11543;43.144;24.684;2023-12-20T11:15:47;3.80;;;2.10;;
22752;SDS011;11543;43.144;24.684;2023-12-20T11:18:13;3.08;;;1.70;;
22752;SDS011;11543;43.144;24.684;2023-12-20T11:20:40;3.92;;;2.75;;
22752;SDS011;11543;43.144;24.684;2023-12-20T11:23:06;4.00;;;1.95;;
22752;SDS011;11543;43.144;24.684;2023-12-20T11:25:51;4.25;;;1.70;;
22752;SDS011;11543;43.144;24.684;2023-12-20T11:28:22;5.40;;;1.92;;
22752;SDS011;11543;43.144;24.684;2023-12-20T11:30:50;6.95;;;2.13;;
22752;SDS011;11543;43.144;24.684;2023-12-20T11:33:24;4.73;;;2.13;;
22752;SDS011;11543;43.144;24.684;2023-12-20T11:35:56;19.30;;;10.50;;
22752;SDS011;11543;43.144;24.684;2023-12-20T11:38:23;6.97;;;3.70;;
22752;SDS011;11543;43.144;24.684;2023-12-20T11:40:49;12.65;;;7.20;;
22752;SDS011;11543;43.144;24.684;2023-12-20T11:43:29;8.30;;;5.53;;
22752;SDS011;11543;43.144;24.684;2023-12-20T11:45:56;8.63;;;2.40;;
22752;SDS011;11543;43.144;24.684;2023-12-20T11:48:29;4.32;;;2.17;;
22752;SDS011;11543;43.144;24.684;2023-12-20T11:50:56;4.30;;;1.77;;
22752;SDS011;11543;43.144;24.684;2023-12-20T11:53:21;5.32;;;2.22;;
22752;SDS011;11543;43.144;24.684;2023-12-20T11:55:48;6.18;;;2.72;;
22752;SDS011;11543;43.144;24.684;2023-12-20T11:58:14;3.83;;;1.73;;
22752;SDS011;11543;43.144;24.684;2023-12-20T12:00:41;4.60;;;1.63;;
22752;SDS011;11543;43.144;24.684;2023-12-20T12:03:08;3.47;;;1.63;;
22752;SDS011;11543;43.144;24.684;2023-12-20T12:05:33;8.77;;;5.53;;
22752;SDS011;11543;43.144;24.684;2023-12-20T12:07:59;6.53;;;2.10;;
22752;SDS011;11543;43.144;24.684;2023-12-20T12:10:24;4.38;;;1.73;;
22752;SDS011;11543;43.144;24.684;2023-12-20T12:12:50;4.78;;;2.58;;
22752;SDS011;11543;43.144;24.684;2023-12-20T12:15:15;4.35;;;2.20;;
22752;SDS011;11543;43.144;24.684;2023-12-20T12:17:41;5.90;;;2.08;;
22752;SDS011;11543;43.144;24.684;2023-12-20T12:20:07;10.10;;;4.95;;
22752;SDS011;11543;43.144;24.684;2023-12-20T12:22:34;6.85;;;4.18;;
22752;SDS011;11543;43.144;24.684;2023-12-20T12:25:11;6.50;;;3.42;;
22752;SDS011;11543;43.144;24.684;2023-12-20T12:27:41;5.80;;;3.28;;
22752;SDS011;11543;43.144;24.684;2023-12-20T12:30:07;13.00;;;7.15;;
22752;SDS011;11543;43.144;24.684;2023-12-20T12:32:35;6.97;;;3.60;;
22752;SDS011;11543;43.144;24.684;2023-12-20T12:35:02;7.53;;;4.18;;
22752;SDS011;11543;43.144;24.684;2023-12-20T12:37:31;15.35;;;8.93;;
22752;SDS011;11543;43.144;24.684;2023-12-20T12:39:59;15.45;;;7.82;;
22752;SDS011;11543;43.144;24.684;2023-12-20T12:42:24;16.48;;;9.40;;
22752;SDS011;11543;43.144;24.684;2023-12-20T12:44:53;11.88;;;6.30;;
22752;SDS011;11543;43.144;24.684;2023-12-20T12:47:20;9.23;;;4.63;;
22752;SDS011;11543;43.144;24.684;2023-12-20T12:49:46;10.88;;;4.97;;
22752;SDS011;11543;43.144;24.684;2023-12-20T12:52:11;10.23;;;4.15;;
22752;SDS011;11543;43.144;24.684;2023-12-20T12:54:36;7.30;;;3.53;;
22752;SDS011;11543;43.144;24.684;2023-12-20T12:57:02;5.10;;;1.85;;
22752;SDS011;11543;43.144;24.684;2023-12-20T12:59:28;9.20;;;3.35;;
22752;SDS011;11543;43.144;24.684;2023-12-20T13:01:54;5.15;;;2.63;;
22752;SDS011;11543;43.144;24.684;2023-12-20T13:04:19;3.47;;;2.22;;
22752;SDS011;11543;43.144;24.684;2023-12-20T13:06:45;8.15;;;4.07;;
22752;SDS011;11543;43.144;24.684;2023-12-20T13:09:10;8.25;;;4.60;;
22752;SDS011;11543;43.144;24.684;2023-12-20T13:11:36;4.75;;;2.60;;
22752;SDS011;11543;43.144;24.684;2023-12-20T13:14:01;9.50;;;3.08;;
22752;SDS011;11543;43.144;24.684;2023-12-20T13:16:28;5.25;;;1.80;;
22752;SDS011;11543;43.144;24.684;2023-12-20T13:18:54;5.05;;;1.73;;
22752;SDS011;11543;43.144;24.684;2023-12-20T13:21:19;4.05;;;2.00;;
22752;SDS011;11543;43.144;24.684;2023-12-20T13:23:45;4.57;;;1.67;;
22752;SDS011;11543;43.144;24.684;2023-12-20T13:26:10;3.63;;;1.80;;
22752;SDS011;11543;43.144;24.684;2023-12-20T13:28:36;3.90;;;1.70;;
22752;SDS011;11543;43.144;24.684;2023-12-20T13:31:01;4.88;;;2.05;;
22752;SDS011;11543;43.144;24.684;2023-12-20T13:33:28;3.58;;;2.30;;
22752;SDS011;11543;43.144;24.684;2023-12-20T13:35:53;4.45;;;2.30;;
22752;SDS011;11543;43.144;24.684;2023-12-20T13:38:19;5.18;;;2.90;;
22752;SDS011;11543;43.144;24.684;2023-12-20T13:40:44;5.20;;;3.05;;
22752;SDS011;11543;43.144;24.684;2023-12-20T13:43:09;7.40;;;3.38;;
22752;SDS011;11543;43.144;24.684;2023-12-20T13:45:38;6.20;;;3.42;;
22752;SDS011;11543;43.144;24.684;2023-12-20T13:48:04;9.18;;;4.72;;
22752;SDS011;11543;43.144;24.684;2023-12-20T13:50:30;15.00;;;8.25;;
22752;SDS011;11543;43.144;24.684;2023-12-20T13:52:55;26.25;;;14.23;;
22752;SDS011;11543;43.144;24.684;2023-12-20T13:55:21;12.13;;;7.65;;
22752;SDS011;11543;43.144;24.684;2023-12-20T13:57:50;26.63;;;13.88;;
22752;SDS011;11543;43.144;24.684;2023-12-20T14:00:16;16.42;;;9.50;;
22752;SDS011;11543;43.144;24.684;2023-12-20T14:02:41;15.93;;;9.82;;
22752;SDS011;11543;43.144;24.684;2023-12-20T14:05:08;17.27;;;11.98;;
22752;SDS011;11543;43.144;24.684;2023-12-20T14:07:34;16.35;;;9.77;;
22752;SDS011;11543;43.144;24.684;2023-12-20T14:09:59;17.73;;;10.85;;
22752;SDS011;11543;43.144;24.684;2023-12-20T14:12:25;16.75;;;9.25;;
22752;SDS011;11543;43.144;24.684;2023-12-20T14:14:50;17.33;;;10.30;;